Time;durP1;ratioP1;P1;durP2;ratioP2;P2;SDS_P1;SDS_P2;PMS_P1;PMS_P2;Temp;Humidity;BMP_temperature;BMP_pressure;BME280_temperature;BME280_humidity;BME280_pressure;Samples;Min_cycle;Max_cycle;Signal;HPM_P1;HPM_P2
2022/03/20 00:00:10;;;;;;;;;;;;;;;;;;351434;28;937;-75
2022/03/20 00:00:22;;;;;;;;;;;;;;;;;;351066;28;1615;-74
2022/03/20 00:00:33;;;;;;;;;;;;;;;;;;350677;28;1787;-75
2022/03/20 00:00:44;;;;;;;;;;;;;;;;;;351455;28;933;-75
2022/03/20 00:00:54;;;;;;;;;;;;;;;;;;351404;28;932;-75
2022/03/20 00:01:05;;;;;;;;;;;;;;;;;;351515;28;806;-75
2022/03/20 00:01:15;;;;;;;;;;;;;;;;;;351475;28;913;-75
2022/03/20 00:01:26;;;;;;;;;;;;;;;;;;351460;28;1125;-75
2022/03/20 00:01:36;;;;;;;;;;;;;;;;;;351382;28;1006;-75
2022/03/20 00:01:46;;;;;;;;;;;;;;;;;;351380;28;976;-75
2022/03/20 00:01:57;;;;;;;;;;;;;;;;;;351444;28;790;-75
2022/03/20 00:02:07;;;;;;;;;;;;;;;;;;351467;28;913;-75
2022/03/20 00:02:17;;;;;;;;;;;;;;;;;;351472;28;941;-75
2022/03/20 00:02:30;;;;;;;;;;;;;;;;;;351434;28;1095;-75
2022/03/20 00:02:41;;;;;;;;;;;;;;;;;;351428;28;797;-75
2022/03/20 00:02:51;;;;;;;;;;;;;;;;;;351455;28;936;-75
2022/03/20 00:03:06;;;;;;;;;;;;;;;;;;351337;28;1010;-75
2022/03/20 00:03:17;;;;;;;;;;;;;;;;;;351423;28;1651;-75
2022/03/20 00:03:27;;;;;;;;;;;;;;;;;;350804;28;1599;-74
2022/03/20 00:03:38;;;;;;;;;;;;;;;;;;350067;28;901;-75
2022/03/20 00:03:48;;;;;;;;;;;;;;;;;;350058;28;783;-74
2022/03/20 00:03:58;;;;;;;;;;;;;;;;;;350495;28;1557;-75
2022/03/20 00:04:08;;;;;;;;;;;;;;;;;;350544;28;1902;-75
2022/03/20 00:04:18;;;;;;;;;;;;;;;;;;351396;28;1023;-75
2022/03/20 00:04:29;;;;;;;;;;;;;;;;;;351457;28;932;-75
2022/03/20 00:04:39;;;;;;;;;;;;;;;;;;351468;28;940;-75
2022/03/20 00:04:49;;;;;;;;;;;;;;;;;;351492;28;849;-75
2022/03/20 00:05:02;;;;;;;;;;;;;;;;;;351454;28;902;-75
2022/03/20 00:05:12;;;;;;;;;;;;;;;;;;351494;28;829;-75
2022/03/20 00:05:23;;;;;;;;;;;;;;;;;;351367;28;1603;-75
2022/03/20 00:05:38;;;;;;;;;;;;;;;;;;351437;28;933;-75
2022/03/20 00:05:49;;;;;;;;;;;;;;;;;;351485;28;972;-75
2022/03/20 00:05:59;;;;;;;;;;;;;;;;;;351306;28;979;-75
2022/03/20 00:06:09;;;;;;;;;;;;;;;;;;351455;28;988;-75
2022/03/20 00:06:20;;;;;;;;;;;;;;;;;;351455;28;1007;-75
2022/03/20 00:06:30;;;;;;;;;;;;;;;;;;351463;28;899;-75
2022/03/20 00:06:40;;;;;;;;;;;;;;;;;;351397;28;1548;-75
2022/03/20 00:06:50;;;;;;;;;;;;;;;;;;351300;28;904;-75
2022/03/20 00:07:01;;;;;;;;;;;;;;;;;;351312;28;793;-75
2022/03/20 00:07:11;;;;;;;;;;;;;;;;;;351216;28;987;-75
2022/03/20 00:07:21;;;;;;;;;;;;;;;;;;351214;28;896;-75
2022/03/20 00:07:33;;;;;;;;;;;;;;;;;;351313;28;995;-75
2022/03/20 00:07:44;;;;;;;;;;;;;;;;;;351479;28;975;-75
2022/03/20 00:07:54;;;;;;;;;;;;;;;;;;351487;28;810;-75
2022/03/20 00:08:08;;;;;;;;;;;;;;;;;;351261;28;1906;-75
2022/03/20 00:08:18;;;;;;;;;;;;;;;;;;351412;28;1767;-74
2022/03/20 00:08:29;;;;;;;;;;;;;;;;;;351480;28;963;-75
2022/03/20 00:08:39;;;;;;;;;;;;;;;;;;351436;28;992;-75
2022/03/20 00:08:52;;;;;;;;;;;;;;;;;;351434;28;961;-75
2022/03/20 00:09:02;;;;;;;;;;;;;;;;;;351467;28;937;-75
2022/03/20 00:09:12;;;;;;;;;;;;;;;;;;351437;28;928;-75
2022/03/20 00:09:22;;;;;;;;;;;;;;;;;;351463;28;976;-75
2022/03/20 00:09:32;;;;;;;;;;;;;;;;;;351408;28;892;-75
2022/03/20 00:09:44;;;;;;;;;;;;;;;;;;351433;28;944;-75
2022/03/20 00:09:54;;;;;;;;;;;;;;;;;;351492;28;818;-75
2022/03/20 00:10:05;;;;;;;;;;;;;;;;;;349890;28;1695;-74
2022/03/20 00:10:15;;;;;;;;;;;;;;;;;;349809;28;1756;-75
2022/03/20 00:10:26;;;;;;;;;;;;;;;;;;350067;28;925;-75
2022/03/20 00:10:36;;;;;;;;;;;;;;;;;;350012;28;1729;-75
2022/03/20 00:10:47;;;;;;;;;;;;;;;;;;351482;28;822;-75
2022/03/20 00:11:02;;;;;;;;;;;;;;;;;;351421;28;976;-75
2022/03/20 00:11:13;;;;;;;;;;;;;;;;;;351459;28;833;-75
2022/03/20 00:11:23;;;;;;;;;;;;;;;;;;351437;28;984;-75
2022/03/20 00:11:33;;;;;;;;;;;;;;;;;;351384;28;988;-75
2022/03/20 00:11:43;;;;;;;;;;;;;;;;;;351452;28;964;-75
2022/03/20 00:11:53;;;;;;;;;;;;;;;;;;351495;28;852;-75
2022/03/20 00:12:04;;;;;;;;;;;;;;;;;;350857;28;1646;-75
2022/03/20 00:12:14;;;;;;;;;;;;;;;;;;350357;28;1701;-75
2022/03/20 00:12:25;;;;;;;;;;;;;;;;;;351479;28;836;-75
2022/03/20 00:12:35;;;;;;;;;;;;;;;;;;351287;28;1564;-75
2022/03/20 00:12:46;;;;;;;;;;;;;;;;;;350296;28;1759;-75
2022/03/20 00:12:56;;;;;;;;;;;;;;;;;;351427;28;882;-75
2022/03/20 00:13:07;;;;;;;;;;;;;;;;;;351422;28;994;-75
2022/03/20 00:13:19;;;;;;;;;;;;;;;;;;351440;28;813;-75
2022/03/20 00:13:30;;;;;;;;;;;;;;;;;;351444;28;1572;-74
2022/03/20 00:13:40;;;;;;;;;;;;;;;;;;350173;28;1673;-75
2022/03/20 00:13:51;;;;;;;;;;;;;;;;;;351368;28;1697;-75
2022/03/20 00:14:02;;;;;;;;;;;;;;;;;;351459;28;924;-75
2022/03/20 00:14:12;;;;;;;;;;;;;;;;;;351416;28;995;-75
2022/03/20 00:14:23;;;;;;;;;;;;;;;;;;351405;28;927;-75
2022/03/20 00:14:34;;;;;;;;;;;;;;;;;;351459;28;948;-75
2022/03/20 00:14:44;;;;;;;;;;;;;;;;;;351447;28;841;-75
2022/03/20 00:14:54;;;;;;;;;;;;;;;;;;351421;28;1166;-75
2022/03/20 00:15:05;;;;;;;;;;;;;;;;;;351457;28;848;-75
2022/03/20 00:15:15;;;;;;;;;;;;;;;;;;351418;28;861;-75
2022/03/20 00:15:25;;;;;;;;;;;;;;;;;;351331;28;1125;-75
2022/03/20 00:15:40;;;;;;;;;;;;;;;;;;351426;28;784;-75
2022/03/20 00:15:51;;;;;;;;;;;;;;;;;;351438;28;985;-75
2022/03/20 00:16:01;;;;;;;;;;;;;;;;;;351399;28;825;-75
2022/03/20 00:16:11;;;;;;;;;;;;;;;;;;351399;28;912;-75
2022/03/20 00:16:23;;;;;;;;;;;;;;;;;;351381;28;782;-75
2022/03/20 00:16:33;;;;;;;;;;;;;;;;;;351454;28;975;-75
2022/03/20 00:16:43;;;;;;;;;;;;;;;;;;351396;28;859;-75
2022/03/20 00:16:54;;;;;;;;;;;;;;;;;;351456;28;797;-75
2022/03/20 00:17:04;;;;;;;;;;;;;;;;;;351487;28;905;-75
2022/03/20 00:17:14;;;;;;;;;;;;;;;;;;351397;28;987;-75
2022/03/20 00:17:25;;;;;;;;;;;;;;;;;;351429;28;909;-75
2022/03/20 00:17:35;;;;;;;;;;;;;;;;;;351232;28;1635;-75
2022/03/20 00:17:46;;;;;;;;;;;;;;;;;;351413;28;952;-75
2022/03/20 00:17:56;;;;;;;;;;;;;;;;;;351457;28;948;-75
2022/03/20 00:18:07;;;;;;;;;;;;;;;;;;351434;28;889;-75
2022/03/20 00:18:20;;;;;;;;;;;;;;;;;;351340;28;909;-75
2022/03/20 00:18:31;;;;;;;;;;;;;;;;;;351331;28;1569;-75
2022/03/20 00:18:41;;;;;;;;;;;;;;;;;;351379;28;1097;-74
2022/03/20 00:18:51;;;;;;;;;;;;;;;;;;351456;28;904;-74
2022/03/20 00:19:02;;;;;;;;;;;;;;;;;;351422;28;1009;-75
2022/03/20 00:19:12;;;;;;;;;;;;;;;;;;351463;28;920;-75
2022/03/20 00:19:23;;;;;;;;;;;;;;;;;;351416;28;908;-75
2022/03/20 00:19:34;;;;;;;;;;;;;;;;;;351424;28;1034;-75
2022/03/20 00:19:44;;;;;;;;;;;;;;;;;;351409;28;1015;-75
2022/03/20 00:19:55;;;;;;;;;;;;;;;;;;351399;28;955;-75
2022/03/20 00:20:06;;;;;;;;;;;;;;;;;;351462;28;1011;-76
2022/03/20 00:20:16;;;;;;;;;;;;;;;;;;351365;28;1138;-75
2022/03/20 00:20:27;;;;;;;;;;;;;;;;;;351275;28;1006;-74
2022/03/20 00:20:38;;;;;;;;;;;;;;;;;;351233;28;1611;-74
2022/03/20 00:20:49;;;;;;;;;;;;;;;;;;351470;28;940;-75
2022/03/20 00:21:00;;;;;;;;;;;;;;;;;;351337;28;999;-75
2022/03/20 00:21:10;;;;;;;;;;;;;;;;;;351436;28;1017;-75
2022/03/20 00:21:21;;;;;;;;;;;;;;;;;;351432;28;925;-75
2022/03/20 00:21:32;;;;;;;;;;;;;;;;;;351419;28;887;-76
2022/03/20 00:21:42;;;;;;;;;;;;;;;;;;351469;28;762;-75
2022/03/20 00:21:53;;;;;;;;;;;;;;;;;;351449;28;837;-75
2022/03/20 00:22:04;;;;;;;;;;;;;;;;;;351385;28;979;-75
2022/03/20 00:22:15;;;;;;;;;;;;;;;;;;351442;28;912;-75
2022/03/20 00:22:26;;;;;;;;;;;;;;;;;;351316;28;1058;-75
2022/03/20 00:22:36;;;;;;;;;;;;;;;;;;351373;28;1007;-75
2022/03/20 00:22:47;;;;;;;;;;;;;;;;;;351330;28;1607;-75
2022/03/20 00:22:57;;;;;;;;;;;;;;;;;;351449;28;920;-75
2022/03/20 00:23:11;;;;;;;;;;;;;;;;;;351379;28;925;-75
2022/03/20 00:23:23;;;;;;;;;;;;;;;;;;351464;28;819;-75
2022/03/20 00:23:34;;;;;;;;;;;;;;;;;;351323;28;1642;-75
2022/03/20 00:23:45;;;;;;;;;;;;;;;;;;351389;28;809;-75
2022/03/20 00:23:55;;;;;;;;;;;;;;;;;;351481;28;860;-75
2022/03/20 00:24:06;;;;;;;;;;;;;;;;;;351394;28;1070;-75
2022/03/20 00:24:18;;;;;;;;;;;;;;;;;;351409;28;924;-75
2022/03/20 00:24:28;;;;;;;;;;;;;;;;;;351415;28;968;-75
2022/03/20 00:24:41;;;;;;;;;;;;;;;;;;351474;28;884;-75
2022/03/20 00:24:52;;;;;;;;;;;;;;;;;;350663;28;1639;-75
2022/03/20 00:25:02;;;;;;;;;;;;;;;;;;350085;28;833;-75
2022/03/20 00:25:13;;;;;;;;;;;;;;;;;;350009;28;1000;-75
2022/03/20 00:25:23;;;;;;;;;;;;;;;;;;349999;28;864;-75
2022/03/20 00:25:34;;;;;;;;;;;;;;;;;;349998;28;956;-75
2022/03/20 00:25:45;;;;;;;;;;;;;;;;;;350015;28;976;-75
2022/03/20 00:25:55;;;;;;;;;;;;;;;;;;349955;28;971;-75
2022/03/20 00:26:06;;;;;;;;;;;;;;;;;;350055;28;854;-75
2022/03/20 00:26:18;;;;;;;;;;;;;;;;;;350021;28;979;-75
2022/03/20 00:26:28;;;;;;;;;;;;;;;;;;350014;28;864;-75
2022/03/20 00:26:39;;;;;;;;;;;;;;;;;;350039;28;905;-75
2022/03/20 00:26:56;;;;;;;;;;;;;;;;;;349970;28;920;-75
2022/03/20 00:27:12;;;;;;;;;;;;;;;;;;350045;28;916;-75
2022/03/20 00:27:22;;;;;;;;;;;;;;;;;;350003;28;991;-75
2022/03/20 00:27:33;;;;;;;;;;;;;;;;;;350040;28;979;-76
2022/03/20 00:27:43;;;;;;;;;;;;;;;;;;350032;28;944;-75
2022/03/20 00:27:53;;;;;;;;;;;;;;;;;;350060;28;829;-76
2022/03/20 00:28:04;;;;;;;;;;;;;;;;;;349910;28;1898;-76
2022/03/20 00:28:15;;;;;;;;;;;;;;;;;;350102;28;1600;-76
2022/03/20 00:28:26;;;;;;;;;;;;;;;;;;350043;28;885;-75
2022/03/20 00:28:37;;;;;;;;;;;;;;;;;;349985;28;928;-76
2022/03/20 00:28:47;;;;;;;;;;;;;;;;;;350744;28;1588;-76
2022/03/20 00:28:57;;;;;;;;;;;;;;;;;;351432;28;972;-75
2022/03/20 00:29:07;;;;;;;;;;;;;;;;;;351331;28;1151;-75
2022/03/20 00:29:18;;;;;;;;;;;;;;;;;;351478;28;849;-75
2022/03/20 00:29:29;;;;;;;;;;;;;;;;;;351402;28;865;-75
2022/03/20 00:29:39;;;;;;;;;;;;;;;;;;351412;28;872;-75
2022/03/20 00:29:50;;;;;;;;;;;;;;;;;;351457;28;915;-75
2022/03/20 00:30:01;;;;;;;;;;;;;;;;;;351436;28;877;-75
2022/03/20 00:30:12;;;;;;;;;;;;;;;;;;351359;28;996;-75
2022/03/20 00:30:22;;;;;;;;;;;;;;;;;;351449;28;979;-75
2022/03/20 00:30:33;;;;;;;;;;;;;;;;;;351376;28;1600;-75
2022/03/20 00:30:43;;;;;;;;;;;;;;;;;;351444;28;782;-75
2022/03/20 00:30:55;;;;;;;;;;;;;;;;;;351379;28;854;-75
2022/03/20 00:31:05;;;;;;;;;;;;;;;;;;351433;28;891;-75
2022/03/20 00:31:16;;;;;;;;;;;;;;;;;;351386;28;952;-75
2022/03/20 00:31:28;;;;;;;;;;;;;;;;;;351438;27;952;-75
2022/03/20 00:31:38;;;;;;;;;;;;;;;;;;351338;28;1102;-74
2022/03/20 00:31:48;;;;;;;;;;;;;;;;;;351409;28;967;-75
2022/03/20 00:31:59;;;;;;;;;;;;;;;;;;351459;28;778;-75
2022/03/20 00:32:11;;;;;;;;;;;;;;;;;;351429;28;1012;-75
2022/03/20 00:32:21;;;;;;;;;;;;;;;;;;351472;28;861;-75
2022/03/20 00:32:31;;;;;;;;;;;;;;;;;;351418;28;995;-75
2022/03/20 00:32:42;;;;;;;;;;;;;;;;;;351354;28;1023;-75
2022/03/20 00:32:52;;;;;;;;;;;;;;;;;;351397;28;987;-76
2022/03/20 00:33:03;;;;;;;;;;;;;;;;;;351406;28;901;-75
2022/03/20 00:33:13;;;;;;;;;;;;;;;;;;351462;28;845;-75
2022/03/20 00:33:23;;;;;;;;;;;;;;;;;;350249;28;1531;-75
2022/03/20 00:33:34;;;;;;;;;;;;;;;;;;349929;28;921;-75
2022/03/20 00:33:44;;;;;;;;;;;;;;;;;;349985;28;1007;-75
2022/03/20 00:33:54;;;;;;;;;;;;;;;;;;350077;28;929;-76
2022/03/20 00:34:04;;;;;;;;;;;;;;;;;;350051;28;835;-75
2022/03/20 00:34:14;;;;;;;;;;;;;;;;;;349862;28;1176;-75
2022/03/20 00:34:25;;;;;;;;;;;;;;;;;;349885;28;883;-75
2022/03/20 00:34:35;;;;;;;;;;;;;;;;;;349935;28;897;-75
2022/03/20 00:34:46;;;;;;;;;;;;;;;;;;349914;28;786;-75
2022/03/20 00:34:59;;;;;;;;;;;;;;;;;;349823;28;1142;-76
2022/03/20 00:35:09;;;;;;;;;;;;;;;;;;349863;28;921;-75
2022/03/20 00:35:20;;;;;;;;;;;;;;;;;;350042;28;1756;-75
2022/03/20 00:35:31;;;;;;;;;;;;;;;;;;350157;28;1793;-75
2022/03/20 00:35:41;;;;;;;;;;;;;;;;;;349902;28;936;-75
2022/03/20 00:35:51;;;;;;;;;;;;;;;;;;350252;28;1688;-76
2022/03/20 00:36:01;;;;;;;;;;;;;;;;;;350379;28;1733;-75
2022/03/20 00:36:12;;;;;;;;;;;;;;;;;;350542;28;1325;-76
2022/03/20 00:36:22;;;;;;;;;;;;;;;;;;351320;28;967;-76
2022/03/20 00:36:35;;;;;;;;;;;;;;;;;;351341;28;774;-75
2022/03/20 00:36:46;;;;;;;;;;;;;;;;;;351273;28;1023;-76
2022/03/20 00:36:56;;;;;;;;;;;;;;;;;;351351;28;1685;-75
2022/03/20 00:37:07;;;;;;;;;;;;;;;;;;351415;28;940;-75
2022/03/20 00:37:17;;;;;;;;;;;;;;;;;;351253;28;897;-75
2022/03/20 00:37:28;;;;;;;;;;;;;;;;;;351200;28;1003;-75
2022/03/20 00:37:38;;;;;;;;;;;;;;;;;;349744;28;1601;-75
2022/03/20 00:37:48;;;;;;;;;;;;;;;;;;349857;28;929;-75
2022/03/20 00:37:59;;;;;;;;;;;;;;;;;;349943;28;782;-75
2022/03/20 00:38:09;;;;;;;;;;;;;;;;;;350805;28;857;-75
2022/03/20 00:38:19;;;;;;;;;;;;;;;;;;351304;28;877;-76
2022/03/20 00:38:29;;;;;;;;;;;;;;;;;;351308;28;991;-75
2022/03/20 00:38:40;;;;;;;;;;;;;;;;;;351330;28;889;-75
2022/03/20 00:38:50;;;;;;;;;;;;;;;;;;351310;28;952;-75
2022/03/20 00:39:00;;;;;;;;;;;;;;;;;;351276;28;976;-75
2022/03/20 00:39:11;;;;;;;;;;;;;;;;;;351338;28;785;-75
2022/03/20 00:39:21;;;;;;;;;;;;;;;;;;351256;28;916;-75
2022/03/20 00:39:32;;;;;;;;;;;;;;;;;;351255;28;1635;-75
2022/03/20 00:39:42;;;;;;;;;;;;;;;;;;350007;28;857;-75
2022/03/20 00:39:52;;;;;;;;;;;;;;;;;;349984;28;937;-75
2022/03/20 00:40:03;;;;;;;;;;;;;;;;;;349990;28;782;-75
2022/03/20 00:40:13;;;;;;;;;;;;;;;;;;350021;28;970;-75
2022/03/20 00:40:23;;;;;;;;;;;;;;;;;;349990;28;1090;-75
2022/03/20 00:40:34;;;;;;;;;;;;;;;;;;350016;28;920;-75
2022/03/20 00:40:44;;;;;;;;;;;;;;;;;;349996;28;925;-76
2022/03/20 00:40:55;;;;;;;;;;;;;;;;;;349932;28;1144;-75
2022/03/20 00:41:05;;;;;;;;;;;;;;;;;;349968;28;1047;-75
2022/03/20 00:41:15;;;;;;;;;;;;;;;;;;349976;28;1001;-75
2022/03/20 00:41:25;;;;;;;;;;;;;;;;;;349854;28;1156;-75
2022/03/20 00:41:36;;;;;;;;;;;;;;;;;;350019;28;790;-75
2022/03/20 00:41:46;;;;;;;;;;;;;;;;;;350830;28;1269;-75
2022/03/20 00:41:56;;;;;;;;;;;;;;;;;;351444;28;862;-76
2022/03/20 00:42:06;;;;;;;;;;;;;;;;;;351448;28;908;-75
2022/03/20 00:42:17;;;;;;;;;;;;;;;;;;351421;28;968;-75
2022/03/20 00:42:27;;;;;;;;;;;;;;;;;;351423;28;806;-75
2022/03/20 00:42:37;;;;;;;;;;;;;;;;;;351438;28;992;-75
2022/03/20 00:42:47;;;;;;;;;;;;;;;;;;351408;28;940;-75
2022/03/20 00:42:58;;;;;;;;;;;;;;;;;;349998;28;1529;-75
2022/03/20 00:43:08;;;;;;;;;;;;;;;;;;349995;28;873;-76
2022/03/20 00:43:18;;;;;;;;;;;;;;;;;;349994;28;925;-75
2022/03/20 00:43:28;;;;;;;;;;;;;;;;;;349984;28;837;-75
2022/03/20 00:43:39;;;;;;;;;;;;;;;;;;350018;28;877;-75
2022/03/20 00:43:49;;;;;;;;;;;;;;;;;;349988;28;979;-75
2022/03/20 00:43:59;;;;;;;;;;;;;;;;;;349960;28;906;-76
2022/03/20 00:44:09;;;;;;;;;;;;;;;;;;350045;28;842;-75
2022/03/20 00:44:20;;;;;;;;;;;;;;;;;;350051;28;861;-76
2022/03/20 00:44:30;;;;;;;;;;;;;;;;;;349966;28;1086;-75
2022/03/20 00:44:41;;;;;;;;;;;;;;;;;;350035;28;916;-75
2022/03/20 00:44:51;;;;;;;;;;;;;;;;;;350155;28;1624;-75
2022/03/20 00:45:01;;;;;;;;;;;;;;;;;;351369;28;1007;-75
2022/03/20 00:45:12;;;;;;;;;;;;;;;;;;351399;28;813;-75
2022/03/20 00:45:22;;;;;;;;;;;;;;;;;;351333;28;1607;-75
2022/03/20 00:45:33;;;;;;;;;;;;;;;;;;350009;28;1783;-75
2022/03/20 00:45:44;;;;;;;;;;;;;;;;;;349977;28;967;-75
2022/03/20 00:45:54;;;;;;;;;;;;;;;;;;349945;28;972;-75
2022/03/20 00:46:04;;;;;;;;;;;;;;;;;;350067;28;794;-76
2022/03/20 00:46:14;;;;;;;;;;;;;;;;;;350012;28;932;-76
2022/03/20 00:46:27;;;;;;;;;;;;;;;;;;350043;28;884;-75
2022/03/20 00:46:37;;;;;;;;;;;;;;;;;;349940;28;999;-75
2022/03/20 00:46:50;;;;;;;;;;;;;;;;;;350439;28;1635;-75
2022/03/20 00:47:01;;;;;;;;;;;;;;;;;;349975;28;936;-75
2022/03/20 00:47:11;;;;;;;;;;;;;;;;;;350003;28;903;-75
2022/03/20 00:47:21;;;;;;;;;;;;;;;;;;350272;28;1604;-74
2022/03/20 00:47:31;;;;;;;;;;;;;;;;;;350111;28;1669;-75
2022/03/20 00:47:42;;;;;;;;;;;;;;;;;;349899;28;940;-75
2022/03/20 00:47:52;;;;;;;;;;;;;;;;;;350029;28;853;-75
2022/03/20 00:48:02;;;;;;;;;;;;;;;;;;349935;28;1914;-75
2022/03/20 00:48:13;;;;;;;;;;;;;;;;;;349969;28;940;-75
2022/03/20 00:48:23;;;;;;;;;;;;;;;;;;350084;28;817;-75
2022/03/20 00:48:33;;;;;;;;;;;;;;;;;;350034;28;853;-76
2022/03/20 00:48:43;;;;;;;;;;;;;;;;;;349969;28;904;-75
2022/03/20 00:48:54;;;;;;;;;;;;;;;;;;351125;28;1651;-75
2022/03/20 00:49:05;;;;;;;;;;;;;;;;;;351383;28;960;-75
2022/03/20 00:49:16;;;;;;;;;;;;;;;;;;351371;28;881;-75
2022/03/20 00:49:27;;;;;;;;;;;;;;;;;;351404;28;916;-75
2022/03/20 00:49:37;;;;;;;;;;;;;;;;;;351410;28;984;-75
2022/03/20 00:49:47;;;;;;;;;;;;;;;;;;351319;28;813;-75
2022/03/20 00:49:57;;;;;;;;;;;;;;;;;;351288;28;1140;-75
2022/03/20 00:50:08;;;;;;;;;;;;;;;;;;351431;28;996;-75
2022/03/20 00:50:18;;;;;;;;;;;;;;;;;;351336;28;944;-75
2022/03/20 00:50:29;;;;;;;;;;;;;;;;;;351466;28;821;-75
2022/03/20 00:50:40;;;;;;;;;;;;;;;;;;351416;28;988;-75
2022/03/20 00:50:50;;;;;;;;;;;;;;;;;;351364;28;960;-75
2022/03/20 00:51:03;;;;;;;;;;;;;;;;;;351389;28;867;-75
2022/03/20 00:51:14;;;;;;;;;;;;;;;;;;350958;28;1642;-75
2022/03/20 00:51:24;;;;;;;;;;;;;;;;;;350025;28;905;-75
2022/03/20 00:51:34;;;;;;;;;;;;;;;;;;350065;28;1608;-75
2022/03/20 00:51:44;;;;;;;;;;;;;;;;;;350898;28;1634;-75
2022/03/20 00:51:54;;;;;;;;;;;;;;;;;;350041;28;1761;-75
2022/03/20 00:52:06;;;;;;;;;;;;;;;;;;349965;28;913;-75
2022/03/20 00:52:16;;;;;;;;;;;;;;;;;;350033;28;952;-75
2022/03/20 00:52:26;;;;;;;;;;;;;;;;;;349863;28;1124;-76
2022/03/20 00:52:37;;;;;;;;;;;;;;;;;;349992;28;984;-75
2022/03/20 00:52:47;;;;;;;;;;;;;;;;;;349990;28;952;-75
2022/03/20 00:52:57;;;;;;;;;;;;;;;;;;349999;28;921;-75
2022/03/20 00:53:07;;;;;;;;;;;;;;;;;;349989;28;925;-75
2022/03/20 00:53:17;;;;;;;;;;;;;;;;;;350480;28;1585;-75
2022/03/20 00:53:28;;;;;;;;;;;;;;;;;;351400;28;929;-76
2022/03/20 00:53:38;;;;;;;;;;;;;;;;;;351423;28;850;-75
2022/03/20 00:53:48;;;;;;;;;;;;;;;;;;350863;28;1536;-75
2022/03/20 00:53:59;;;;;;;;;;;;;;;;;;349972;28;948;-75
2022/03/20 00:54:10;;;;;;;;;;;;;;;;;;349932;28;828;-76
2022/03/20 00:54:21;;;;;;;;;;;;;;;;;;351037;28;1592;-75
2022/03/20 00:54:31;;;;;;;;;;;;;;;;;;351425;28;959;-75
2022/03/20 00:54:41;;;;;;;;;;;;;;;;;;351280;28;1379;-75
2022/03/20 00:54:51;;;;;;;;;;;;;;;;;;351410;28;897;-75
2022/03/20 00:55:02;;;;;;;;;;;;;;;;;;351320;28;861;-75
2022/03/20 00:55:12;;;;;;;;;;;;;;;;;;351403;28;964;-75
2022/03/20 00:55:23;;;;;;;;;;;;;;;;;;351404;28;991;-76
2022/03/20 00:55:33;;;;;;;;;;;;;;;;;;351401;28;909;-75
2022/03/20 00:55:43;;;;;;;;;;;;;;;;;;351332;28;1580;-75
2022/03/20 00:55:53;;;;;;;;;;;;;;;;;;351354;28;932;-75
2022/03/20 00:56:04;;;;;;;;;;;;;;;;;;351305;28;909;-75
2022/03/20 00:56:14;;;;;;;;;;;;;;;;;;354066;27;758;-75
2022/03/20 00:56:24;;;;;;;;;;;;;;;;;;354127;27;806;-75
2022/03/20 00:56:34;;;;;;;;;;;;;;;;;;354085;27;932;-75
2022/03/20 00:56:44;;;;;;;;;;;;;;;;;;354087;27;915;-75
2022/03/20 00:56:55;;;;;;;;;;;;;;;;;;354150;27;841;-75
2022/03/20 00:57:05;;;;;;;;;;;;;;;;;;354122;27;884;-76
2022/03/20 00:57:15;;;;;;;;;;;;;;;;;;354149;27;958;-75
2022/03/20 00:57:26;;;;;;;;;;;;;;;;;;354109;27;828;-75
2022/03/20 00:57:36;;;;;;;;;;;;;;;;;;354110;27;994;-75
2022/03/20 00:57:46;;;;;;;;;;;;;;;;;;354160;27;907;-75
2022/03/20 00:57:57;;;;;;;;;;;;;;;;;;354151;27;860;-75
2022/03/20 00:58:07;;;;;;;;;;;;;;;;;;353320;27;1111;-76
2022/03/20 00:58:17;;;;;;;;;;;;;;;;;;351328;28;1686;-75
2022/03/20 00:58:27;;;;;;;;;;;;;;;;;;351431;28;785;-75
2022/03/20 00:58:38;;;;;;;;;;;;;;;;;;351391;28;992;-75
2022/03/20 00:58:48;;;;;;;;;;;;;;;;;;351359;28;809;-75
2022/03/20 00:58:58;;;;;;;;;;;;;;;;;;351457;28;770;-75
2022/03/20 00:59:09;;;;;;;;;;;;;;;;;;351169;28;1772;-75
2022/03/20 00:59:19;;;;;;;;;;;;;;;;;;349988;28;968;-75
2022/03/20 00:59:29;;;;;;;;;;;;;;;;;;349938;28;903;-75
2022/03/20 00:59:40;;;;;;;;;;;;;;;;;;350035;28;921;-75
2022/03/20 00:59:51;;;;;;;;;;;;;;;;;;349989;28;1015;-75
2022/03/20 01:00:01;;;;;;;;;;;;;;;;;;349989;28;921;-75
2022/03/20 01:00:12;;;;;;;;;;;;;;;;;;349860;28;933;-75
2022/03/20 01:00:22;;;;;;;;;;;;;;;;;;349832;28;1569;-75
2022/03/20 01:00:32;;;;;;;;;;;;;;;;;;350749;28;1733;-75
2022/03/20 01:00:43;;;;;;;;;;;;;;;;;;351384;28;1003;-75
2022/03/20 01:00:53;;;;;;;;;;;;;;;;;;351376;28;841;-75
2022/03/20 01:01:04;;;;;;;;;;;;;;;;;;351424;28;901;-75
2022/03/20 01:01:14;;;;;;;;;;;;;;;;;;351377;28;789;-75
2022/03/20 01:01:26;;;;;;;;;;;;;;;;;;351346;28;921;-75
2022/03/20 01:01:36;;;;;;;;;;;;;;;;;;351357;28;987;-75
2022/03/20 01:01:47;;;;;;;;;;;;;;;;;;351397;28;940;-75
2022/03/20 01:01:57;;;;;;;;;;;;;;;;;;351408;28;1063;-75
2022/03/20 01:02:08;;;;;;;;;;;;;;;;;;351396;28;905;-75
2022/03/20 01:02:18;;;;;;;;;;;;;;;;;;351231;28;1779;-75
2022/03/20 01:02:29;;;;;;;;;;;;;;;;;;351359;28;920;-75
2022/03/20 01:02:40;;;;;;;;;;;;;;;;;;351390;28;963;-75
2022/03/20 01:02:50;;;;;;;;;;;;;;;;;;351411;28;1043;-75
2022/03/20 01:03:00;;;;;;;;;;;;;;;;;;351354;28;856;-75
2022/03/20 01:03:10;;;;;;;;;;;;;;;;;;351402;28;917;-75
2022/03/20 01:03:21;;;;;;;;;;;;;;;;;;351324;28;1031;-75
2022/03/20 01:03:31;;;;;;;;;;;;;;;;;;351353;28;734;-75
2022/03/20 01:03:41;;;;;;;;;;;;;;;;;;351233;28;1030;-75
2022/03/20 01:03:51;;;;;;;;;;;;;;;;;;351286;28;916;-75
2022/03/20 01:04:02;;;;;;;;;;;;;;;;;;351287;28;872;-75
2022/03/20 01:04:13;;;;;;;;;;;;;;;;;;351300;28;916;-75
2022/03/20 01:04:23;;;;;;;;;;;;;;;;;;349735;28;1682;-75
2022/03/20 01:04:34;;;;;;;;;;;;;;;;;;349889;28;941;-76
2022/03/20 01:04:45;;;;;;;;;;;;;;;;;;349916;28;865;-75
2022/03/20 01:04:55;;;;;;;;;;;;;;;;;;349910;28;850;-75
2022/03/20 01:05:06;;;;;;;;;;;;;;;;;;349873;28;806;-75
2022/03/20 01:05:16;;;;;;;;;;;;;;;;;;349879;28;916;-75
2022/03/20 01:05:27;;;;;;;;;;;;;;;;;;349906;28;991;-75
2022/03/20 01:05:37;;;;;;;;;;;;;;;;;;349963;28;841;-75
2022/03/20 01:05:47;;;;;;;;;;;;;;;;;;349925;28;1012;-75
2022/03/20 01:05:57;;;;;;;;;;;;;;;;;;349981;28;980;-76
2022/03/20 01:06:08;;;;;;;;;;;;;;;;;;350070;28;1636;-75
2022/03/20 01:06:20;;;;;;;;;;;;;;;;;;351390;28;837;-75
2022/03/20 01:06:31;;;;;;;;;;;;;;;;;;351300;28;1035;-75
2022/03/20 01:06:41;;;;;;;;;;;;;;;;;;351395;28;928;-75
2022/03/20 01:06:55;;;;;;;;;;;;;;;;;;351403;28;804;-76
2022/03/20 01:07:05;;;;;;;;;;;;;;;;;;351290;28;988;-76
2022/03/20 01:07:15;;;;;;;;;;;;;;;;;;351375;28;853;-75
2022/03/20 01:07:26;;;;;;;;;;;;;;;;;;351305;28;959;-75
2022/03/20 01:07:36;;;;;;;;;;;;;;;;;;351366;28;968;-75
2022/03/20 01:07:47;;;;;;;;;;;;;;;;;;351385;28;979;-75
2022/03/20 01:07:59;;;;;;;;;;;;;;;;;;351374;28;929;-76
2022/03/20 01:08:09;;;;;;;;;;;;;;;;;;351412;28;808;-75
2022/03/20 01:08:19;;;;;;;;;;;;;;;;;;351183;28;1536;-75
2022/03/20 01:08:30;;;;;;;;;;;;;;;;;;351269;28;952;-75
2022/03/20 01:08:40;;;;;;;;;;;;;;;;;;351375;28;992;-75
2022/03/20 01:08:51;;;;;;;;;;;;;;;;;;351408;28;913;-75
2022/03/20 01:09:01;;;;;;;;;;;;;;;;;;351333;28;908;-75
2022/03/20 01:09:11;;;;;;;;;;;;;;;;;;351400;28;869;-76
2022/03/20 01:09:22;;;;;;;;;;;;;;;;;;351326;28;1070;-75
2022/03/20 01:09:32;;;;;;;;;;;;;;;;;;351341;28;1027;-75
2022/03/20 01:09:43;;;;;;;;;;;;;;;;;;351055;28;1712;-75
2022/03/20 01:09:53;;;;;;;;;;;;;;;;;;350402;28;1829;-75
2022/03/20 01:10:04;;;;;;;;;;;;;;;;;;351314;28;975;-76
2022/03/20 01:10:14;;;;;;;;;;;;;;;;;;351342;28;1524;-75
2022/03/20 01:10:25;;;;;;;;;;;;;;;;;;350240;28;1737;-75
2022/03/20 01:10:35;;;;;;;;;;;;;;;;;;349918;28;865;-75
2022/03/20 01:10:45;;;;;;;;;;;;;;;;;;349969;28;937;-75
2022/03/20 01:10:55;;;;;;;;;;;;;;;;;;350001;28;874;-76
2022/03/20 01:11:06;;;;;;;;;;;;;;;;;;349937;28;909;-75
2022/03/20 01:11:16;;;;;;;;;;;;;;;;;;349988;28;920;-75
2022/03/20 01:11:27;;;;;;;;;;;;;;;;;;349947;28;917;-75
2022/03/20 01:11:38;;;;;;;;;;;;;;;;;;349983;28;778;-75
2022/03/20 01:11:48;;;;;;;;;;;;;;;;;;349944;28;1000;-75
2022/03/20 01:11:59;;;;;;;;;;;;;;;;;;349989;28;960;-75
2022/03/20 01:12:10;;;;;;;;;;;;;;;;;;349994;28;905;-75
2022/03/20 01:12:20;;;;;;;;;;;;;;;;;;349979;28;861;-75
2022/03/20 01:12:32;;;;;;;;;;;;;;;;;;349851;28;857;-75
2022/03/20 01:12:43;;;;;;;;;;;;;;;;;;349809;28;1752;-75
2022/03/20 01:12:53;;;;;;;;;;;;;;;;;;350260;28;1604;-75
2022/03/20 01:13:03;;;;;;;;;;;;;;;;;;349894;28;1694;-75
2022/03/20 01:13:13;;;;;;;;;;;;;;;;;;349945;28;921;-75
2022/03/20 01:13:23;;;;;;;;;;;;;;;;;;349931;28;1020;-75
2022/03/20 01:13:34;;;;;;;;;;;;;;;;;;349956;28;1164;-75
2022/03/20 01:13:44;;;;;;;;;;;;;;;;;;349981;28;969;-75
2022/03/20 01:13:55;;;;;;;;;;;;;;;;;;349951;28;838;-75
2022/03/20 01:14:07;;;;;;;;;;;;;;;;;;350012;28;920;-75
2022/03/20 01:14:17;;;;;;;;;;;;;;;;;;350036;28;825;-75
2022/03/20 01:14:28;;;;;;;;;;;;;;;;;;349989;28;829;-75
2022/03/20 01:14:38;;;;;;;;;;;;;;;;;;350334;28;1584;-75
2022/03/20 01:14:48;;;;;;;;;;;;;;;;;;350368;28;1752;-75
2022/03/20 01:14:59;;;;;;;;;;;;;;;;;;351339;28;980;-75
2022/03/20 01:15:10;;;;;;;;;;;;;;;;;;351286;28;1057;-75
2022/03/20 01:15:21;;;;;;;;;;;;;;;;;;349895;28;1740;-75
2022/03/20 01:15:31;;;;;;;;;;;;;;;;;;349860;28;1034;-75
2022/03/20 01:15:42;;;;;;;;;;;;;;;;;;349962;28;932;-75
2022/03/20 01:15:52;;;;;;;;;;;;;;;;;;349944;28;1035;-75
2022/03/20 01:16:02;;;;;;;;;;;;;;;;;;349929;28;928;-75
2022/03/20 01:16:13;;;;;;;;;;;;;;;;;;349984;28;929;-75